createdAt,value
2024-04-30T00:01:25.536Z,14.11
2024-04-30T00:04:33.120Z,14.09
2024-04-30T00:07:38.231Z,14.11
2024-04-30T00:10:43.085Z,14.02
2024-04-30T00:13:48.023Z,14.05
2024-04-30T00:16:53.152Z,14.05
2024-04-30T00:20:00.994Z,14.05
2024-04-30T00:23:03.736Z,14.01
2024-04-30T00:26:13.186Z,13.94
2024-04-30T00:29:15.737Z,13.96
2024-04-30T00:32:20.701Z,13.94
2024-04-30T00:35:28.304Z,13.94
2024-04-30T00:38:30.672Z,13.84
2024-04-30T00:41:35.699Z,13.76
2024-04-30T00:44:38.092Z,13.81
2024-04-30T00:47:43.181Z,13.81
2024-04-30T00:50:50.029Z,13.72
2024-04-30T00:53:55.420Z,13.73
2024-04-30T00:56:58.888Z,13.68
2024-04-30T01:00:03.734Z,13.68
2024-04-30T01:03:11.476Z,13.57
2024-04-30T01:06:18.888Z,13.63
2024-04-30T01:09:21.166Z,13.60
2024-04-30T01:12:27.636Z,13.62
2024-04-30T01:15:30.159Z,13.61
2024-04-30T01:18:35.712Z,13.48
2024-04-30T01:21:40.600Z,13.49
2024-04-30T01:24:48.043Z,13.49
2024-04-30T01:27:50.391Z,13.44
2024-04-30T01:30:55.168Z,13.38
2024-04-30T01:33:57.774Z,13.38
2024-04-30T01:37:02.655Z,13.36
2024-04-30T01:40:09.482Z,13.36
2024-04-30T01:43:14.396Z,13.30
2024-04-30T01:46:16.708Z,13.27
2024-04-30T01:49:21.985Z,13.27
2024-04-30T01:52:32.212Z,13.26
2024-04-30T01:55:37.137Z,13.23
2024-04-30T01:58:42.179Z,13.18
2024-04-30T02:01:44.576Z,13.21
2024-04-30T02:04:53.375Z,13.21
2024-04-30T02:07:58.861Z,13.16
2024-04-30T02:11:07.183Z,13.12
2024-04-30T02:14:12.492Z,13.12
2024-04-30T02:17:14.786Z,13.11
2024-04-30T02:20:19.785Z,13.06
2024-04-30T02:23:21.974Z,13.09
2024-04-30T02:26:29.382Z,13.06
2024-04-30T02:29:31.624Z,13.01
2024-04-30T02:32:53.388Z,13.04
2024-04-30T02:35:58.244Z,13.03
2024-04-30T02:39:04.157Z,12.95
2024-04-30T02:42:11.743Z,12.96
2024-04-30T02:45:16.675Z,12.96
2024-04-30T02:48:18.927Z,12.95
2024-04-30T02:51:24.058Z,12.93
2024-04-30T02:54:26.316Z,12.93
2024-04-30T02:57:33.739Z,12.87
2024-04-30T03:00:41.325Z,12.84
2024-04-30T03:03:46.618Z,12.80
2024-04-30T03:06:55.169Z,12.84
2024-04-30T03:09:57.407Z,12.84
2024-04-30T03:13:04.896Z,12.83
2024-04-30T03:16:07.169Z,12.79
2024-04-30T03:19:12.203Z,12.78
2024-04-30T03:22:19.577Z,12.75
2024-04-30T03:25:21.875Z,12.72
2024-04-30T03:28:31.772Z,12.71
2024-04-30T03:31:37.081Z,12.68
2024-04-30T03:34:39.473Z,12.65
2024-04-30T03:37:44.296Z,12.64
2024-04-30T03:40:49.168Z,12.64
2024-04-30T03:43:56.902Z,12.60
2024-04-30T03:47:01.857Z,12.58
2024-04-30T03:50:07.871Z,12.61
2024-04-30T03:53:13.462Z,12.60
2024-04-30T03:56:18.519Z,12.53
2024-04-30T03:59:26.252Z,12.57
2024-04-30T04:02:28.691Z,12.60
2024-04-30T04:05:33.904Z,12.60
2024-04-30T04:08:38.746Z,12.61
2024-04-30T04:12:00.044Z,12.65
2024-04-30T04:15:08.762Z,12.64
2024-04-30T04:18:16.498Z,12.65
2024-04-30T04:21:23.918Z,12.66
2024-04-30T04:24:29.359Z,12.73
2024-04-30T04:27:34.335Z,12.74
2024-04-30T04:30:39.165Z,12.81
2024-04-30T04:33:44.184Z,12.83
2024-04-30T04:36:49.037Z,12.89
2024-04-30T04:39:51.441Z,12.95
2024-04-30T04:42:56.437Z,12.98
2024-04-30T04:46:01.447Z,12.97
2024-04-30T04:49:08.188Z,13.03
2024-04-30T04:52:10.752Z,13.09
2024-04-30T04:55:15.733Z,13.15
2024-04-30T04:58:20.585Z,13.15
2024-04-30T05:01:28.160Z,13.23
2024-04-30T05:04:30.508Z,13.30
2024-04-30T05:07:37.377Z,13.43
2024-04-30T05:10:39.815Z,13.45
2024-04-30T05:13:45.296Z,13.49
2024-04-30T05:16:52.978Z,13.58
2024-04-30T05:19:57.838Z,13.63
2024-04-30T05:23:02.682Z,13.74
2024-04-30T05:26:05.156Z,13.81
2024-04-30T05:29:10.070Z,13.84
2024-04-30T05:32:17.497Z,13.89
2024-04-30T05:35:19.758Z,13.95
2024-04-30T05:38:24.986Z,14.06
2024-04-30T05:41:27.192Z,14.18
2024-04-30T05:44:32.018Z,14.29
2024-04-30T05:47:36.942Z,14.42
2024-04-30T05:50:44.764Z,14.45
2024-04-30T05:53:46.961Z,14.59
2024-04-30T05:56:51.796Z,14.67
2024-04-30T05:59:54.375Z,14.82
2024-04-30T06:03:03.842Z,15.01
2024-04-30T06:06:11.939Z,15.16
2024-04-30T06:09:16.756Z,15.27
2024-04-30T06:12:18.992Z,15.40
2024-04-30T06:15:23.856Z,15.45
2024-04-30T06:18:32.158Z,15.54
2024-04-30T06:21:38.169Z,15.76
2024-04-30T06:24:44.150Z,15.84
2024-04-30T06:27:51.070Z,16.02
2024-04-30T06:30:55.896Z,16.23
2024-04-30T06:34:03.492Z,16.48
2024-04-30T06:37:06.647Z,16.64
2024-04-30T06:40:12.866Z,16.83
2024-04-30T06:43:17.820Z,16.96
2024-04-30T06:46:20.134Z,17.07
2024-04-30T06:49:27.871Z,17.27
2024-04-30T06:52:35.814Z,17.44
2024-04-30T06:55:42.645Z,17.62
2024-04-30T06:58:45.100Z,17.68
2024-04-30T07:01:49.974Z,17.88
2024-04-30T07:04:54.914Z,18.02
2024-04-30T07:07:59.797Z,18.22
2024-04-30T07:11:03.085Z,18.33
2024-04-30T07:14:08.305Z,18.56
2024-04-30T07:17:11.127Z,18.79
2024-04-30T07:20:18.936Z,18.80
2024-04-30T07:23:21.536Z,18.82
2024-04-30T07:26:32.100Z,19.26
2024-04-30T07:29:34.321Z,19.49
2024-04-30T07:32:39.190Z,19.57
2024-04-30T07:35:44.172Z,19.64
2024-04-30T07:38:49.407Z,19.79
2024-04-30T07:41:57.086Z,19.77
2024-04-30T07:45:04.834Z,20.03
2024-04-30T07:48:08.929Z,20.12
2024-04-30T07:51:16.480Z,20.33
2024-04-30T07:54:21.786Z,20.45
2024-04-30T07:57:24.028Z,20.29
2024-04-30T08:00:29.152Z,20.79
2024-04-30T08:03:31.539Z,21.12
2024-04-30T08:06:39.021Z,21.25
2024-04-30T08:09:41.660Z,21.27
2024-04-30T08:12:46.430Z,21.40
2024-04-30T08:15:48.719Z,21.45
2024-04-30T08:18:55.580Z,21.79
2024-04-30T08:22:03.269Z,22.07
2024-04-30T08:25:11.363Z,21.87
2024-04-30T08:28:16.310Z,22.33
2024-04-30T08:31:19.021Z,22.33
2024-04-30T08:34:25.436Z,22.40
2024-04-30T08:37:32.594Z,22.75
2024-04-30T08:40:39.390Z,22.89
2024-04-30T08:43:42.894Z,23.04
2024-04-30T08:46:52.208Z,23.39
2024-04-30T08:50:09.380Z,23.32
2024-04-30T08:53:26.677Z,23.58
2024-04-30T08:56:31.633Z,23.83
2024-04-30T08:59:34.066Z,23.95
2024-04-30T09:02:42.441Z,23.98
2024-04-30T09:05:49.334Z,24.05
2024-04-30T09:08:56.765Z,24.35
2024-04-30T09:12:01.752Z,24.53
2024-04-30T09:15:07.731Z,24.83
2024-04-30T09:18:10.758Z,24.70
2024-04-30T09:21:26.149Z,24.68
2024-04-30T09:24:33.664Z,24.66
2024-04-30T09:27:39.647Z,25.17
2024-04-30T09:30:45.225Z,25.12
2024-04-30T09:34:00.163Z,25.42
2024-04-30T09:37:06.286Z,25.60
2024-04-30T09:40:14.016Z,25.85
2024-04-30T09:43:19.050Z,26.15
2024-04-30T09:46:24.421Z,25.69
2024-04-30T09:49:31.043Z,26.23
2024-04-30T09:52:40.057Z,26.31
2024-04-30T09:55:48.438Z,26.75
2024-04-30T09:58:51.068Z,26.83
2024-04-30T10:01:58.497Z,26.79
2024-04-30T10:05:03.355Z,26.80
2024-04-30T10:08:09.389Z,26.63
2024-04-30T10:11:16.884Z,26.64
2024-04-30T10:14:31.882Z,26.84
2024-04-30T10:17:41.335Z,27.04
2024-04-30T10:20:46.300Z,27.02
2024-04-30T10:23:51.616Z,27.15
2024-04-30T10:26:56.414Z,26.98
2024-04-30T10:30:02.817Z,27.10
2024-04-30T10:33:08.653Z,27.27
2024-04-30T10:36:16.121Z,27.50
2024-04-30T10:39:26.443Z,27.24
2024-04-30T10:42:39.719Z,27.57
2024-04-30T10:45:42.018Z,27.50
2024-04-30T10:48:51.600Z,27.56
2024-04-30T10:51:56.560Z,28.19
2024-04-30T10:55:01.704Z,28.37
2024-04-30T10:58:14.458Z,27.93
2024-04-30T11:01:26.451Z,27.92
2024-04-30T11:04:33.554Z,28.08
2024-04-30T11:07:36.146Z,28.39
2024-04-30T11:10:41.056Z,28.46
2024-04-30T11:13:49.309Z,28.80
2024-04-30T11:16:55.792Z,28.50
2024-04-30T11:20:01.926Z,28.72
2024-04-30T11:23:04.933Z,29.28
2024-04-30T11:26:10.803Z,29.06
2024-04-30T11:29:30.718Z,28.85
2024-04-30T11:32:42.803Z,29.12
2024-04-30T11:35:45.098Z,28.59
2024-04-30T11:38:50.502Z,29.34
2024-04-30T11:42:01.948Z,29.91
2024-04-30T11:45:25.855Z,29.51
2024-04-30T11:48:34.045Z,29.69
2024-04-30T11:51:39.801Z,29.49
2024-04-30T11:54:42.030Z,29.64
2024-04-30T11:57:46.823Z,29.60
2024-04-30T12:00:54.192Z,29.68
2024-04-30T12:04:01.320Z,29.92
2024-04-30T12:07:04.285Z,30.52
2024-04-30T12:10:11.066Z,30.25
2024-04-30T12:13:15.919Z,30.48
2024-04-30T12:16:20.900Z,30.60
2024-04-30T12:19:25.863Z,30.68
2024-04-30T12:22:31.047Z,30.77
2024-04-30T12:25:35.880Z,30.53
2024-04-30T12:28:42.536Z,30.42
2024-04-30T12:31:50.043Z,30.40
2024-04-30T12:34:52.322Z,30.36
2024-04-30T12:37:57.242Z,30.03
2024-04-30T12:40:59.476Z,30.48
2024-04-30T12:44:04.342Z,30.71
2024-04-30T12:47:12.083Z,30.35
2024-04-30T12:50:17.563Z,30.43
2024-04-30T12:53:22.357Z,30.40
2024-04-30T12:56:27.189Z,30.64
2024-04-30T12:59:32.282Z,30.31
2024-04-30T13:02:39.820Z,30.57
2024-04-30T13:05:42.231Z,30.82
2024-04-30T13:08:47.803Z,30.80
2024-04-30T13:11:50.084Z,30.90
2024-04-30T13:14:54.967Z,30.94
2024-04-30T13:18:03.277Z,30.36
2024-04-30T13:21:09.959Z,30.95
2024-04-30T13:24:15.172Z,31.32
2024-04-30T13:27:20.257Z,31.07
2024-04-30T13:30:25.052Z,30.50
2024-04-30T13:33:35.162Z,30.35
2024-04-30T13:36:37.509Z,30.16
2024-04-30T13:39:42.498Z,30.41
2024-04-30T13:42:47.257Z,30.49
2024-04-30T13:45:53.313Z,30.50
2024-04-30T13:49:04.570Z,30.69
2024-04-30T13:52:09.807Z,30.87
2024-04-30T13:55:12.327Z,31.03
2024-04-30T13:58:17.348Z,31.13
2024-04-30T14:01:19.730Z,30.73
2024-04-30T14:04:27.462Z,30.82
2024-04-30T14:07:32.451Z,31.08
2024-04-30T14:10:37.807Z,31.39
2024-04-30T14:13:42.838Z,31.65
2024-04-30T14:16:48.232Z,31.50
2024-04-30T14:19:53.460Z,31.05
2024-04-30T14:22:58.506Z,30.66
2024-04-30T14:26:07.561Z,31.41
2024-04-30T14:29:13.255Z,31.19
2024-04-30T14:32:18.305Z,31.00
2024-04-30T14:35:25.497Z,30.68
2024-04-30T14:38:30.362Z,31.25
2024-04-30T14:41:35.780Z,31.28
2024-04-30T14:44:38.067Z,31.57
2024-04-30T14:47:45.650Z,32.11
2024-04-30T14:50:52.082Z,32.38
2024-04-30T14:53:56.918Z,31.69
2024-04-30T14:56:59.535Z,31.48
2024-04-30T15:00:04.360Z,31.16
2024-04-30T15:03:06.968Z,31.36
2024-04-30T15:06:20.219Z,31.16
2024-04-30T15:09:22.692Z,31.19
2024-04-30T15:12:28.696Z,31.42
2024-04-30T15:15:30.960Z,30.57
2024-04-30T15:18:36.164Z,30.80
2024-04-30T15:21:44.562Z,30.66
2024-04-30T15:24:49.577Z,30.93
2024-04-30T15:27:54.378Z,30.64
2024-04-30T15:30:59.633Z,30.92
2024-04-30T15:34:01.947Z,30.42
2024-04-30T15:37:09.453Z,30.35
2024-04-30T15:40:14.691Z,30.25
2024-04-30T15:43:18.692Z,30.46
2024-04-30T15:46:24.049Z,30.73
2024-04-30T15:49:29.052Z,30.67
2024-04-30T15:52:33.995Z,30.35
2024-04-30T15:55:39.322Z,29.98
2024-04-30T15:58:42.066Z,29.60
2024-04-30T16:01:47.212Z,29.64
2024-04-30T16:04:49.892Z,29.66
2024-04-30T16:07:57.444Z,29.48
2024-04-30T16:11:09.221Z,29.59
2024-04-30T16:14:16.856Z,29.68
2024-04-30T16:17:21.200Z,29.64
2024-04-30T16:20:26.243Z,29.52
2024-04-30T16:23:31.015Z,29.09
2024-04-30T16:26:35.804Z,28.95
2024-04-30T16:29:38.050Z,28.64
2024-04-30T16:32:42.903Z,28.57
2024-04-30T16:35:45.548Z,28.53
2024-04-30T16:38:52.889Z,28.68
2024-04-30T16:41:55.133Z,28.42
2024-04-30T16:45:00.450Z,28.35
2024-04-30T16:48:10.114Z,28.40
2024-04-30T16:51:16.400Z,28.33
2024-04-30T16:54:24.664Z,28.30
2024-04-30T16:57:29.577Z,28.24
2024-04-30T17:00:31.961Z,28.22
2024-04-30T17:03:36.964Z,28.16
2024-04-30T17:06:48.128Z,27.75
2024-04-30T17:09:56.459Z,27.72
2024-04-30T17:13:01.443Z,27.61
2024-04-30T17:16:04.753Z,27.59
2024-04-30T17:19:10.384Z,27.51
2024-04-30T17:22:12.652Z,27.39
2024-04-30T17:25:20.513Z,27.33
2024-04-30T17:28:23.567Z,27.13
2024-04-30T17:31:28.593Z,26.98
2024-04-30T17:34:30.814Z,26.99
2024-04-30T17:37:38.058Z,26.90
2024-04-30T17:40:45.476Z,26.93
2024-04-30T17:43:47.759Z,26.71
2024-04-30T17:46:52.589Z,26.71
2024-04-30T17:49:55.191Z,26.27
2024-04-30T17:53:00.115Z,26.44
2024-04-30T17:56:08.178Z,26.27
2024-04-30T17:59:13.731Z,26.16
2024-04-30T18:02:18.670Z,25.98
2024-04-30T18:05:20.980Z,25.78
2024-04-30T18:08:25.753Z,25.73
2024-04-30T18:11:33.411Z,25.47
2024-04-30T18:14:40.471Z,25.18
2024-04-30T18:17:45.260Z,24.96
2024-04-30T18:20:47.525Z,24.98
2024-04-30T18:23:52.625Z,24.68
2024-04-30T18:27:00.026Z,24.67
2024-04-30T18:30:02.320Z,24.50
2024-04-30T18:33:07.631Z,24.30
2024-04-30T18:36:10.145Z,24.13
2024-04-30T18:39:16.202Z,23.98
2024-04-30T18:42:22.068Z,23.74
2024-04-30T18:45:26.978Z,23.86
2024-04-30T18:48:32.072Z,23.64
2024-04-30T18:51:42.137Z,23.68
2024-04-30T18:54:44.507Z,23.57
2024-04-30T18:57:52.032Z,23.45
2024-04-30T19:00:54.365Z,23.39
2024-04-30T19:09:06.794Z,23.19
2024-04-30T19:12:11.689Z,22.98
2024-04-30T19:15:16.629Z,22.83
2024-04-30T19:18:21.577Z,22.68
2024-04-30T19:21:27.045Z,22.58
2024-04-30T19:24:31.914Z,22.48
2024-04-30T19:27:34.310Z,22.37
2024-04-30T19:30:41.833Z,22.57
2024-04-30T19:33:44.182Z,22.38
2024-04-30T19:36:49.157Z,22.35
2024-04-30T19:39:54.143Z,22.35
2024-04-30T19:42:59.595Z,22.29
2024-04-30T19:46:07.690Z,22.24
2024-04-30T19:49:10.143Z,22.18
2024-04-30T19:52:15.004Z,21.98
2024-04-30T19:55:17.465Z,21.88
2024-04-30T19:58:23.878Z,21.90
2024-04-30T20:01:31.282Z,21.64
2024-04-30T20:04:39.594Z,21.47
2024-04-30T20:07:42.646Z,21.58
2024-04-30T20:10:47.459Z,21.46
2024-04-30T20:13:53.565Z,21.35
2024-04-30T20:16:58.507Z,21.34
2024-04-30T20:20:03.510Z,21.19
2024-04-30T20:23:08.412Z,21.05
2024-04-30T20:26:30.679Z,21.10
2024-04-30T20:29:33.129Z,21.01
2024-04-30T20:32:41.038Z,21.20
2024-04-30T20:35:53.800Z,20.99
2024-04-30T20:39:01.382Z,21.15
2024-04-30T20:42:14.233Z,21.07
2024-04-30T20:45:21.656Z,20.89
2024-04-30T20:48:29.308Z,20.87
2024-04-30T20:51:34.227Z,20.87
2024-04-30T20:54:39.135Z,20.59
2024-04-30T20:57:44.002Z,20.35
2024-04-30T21:00:52.299Z,20.55
2024-04-30T21:04:00.041Z,20.47
2024-04-30T21:07:02.463Z,20.57
2024-04-30T21:10:07.972Z,20.42
2024-04-30T21:13:15.621Z,20.39
2024-04-30T21:16:17.821Z,20.28
2024-04-30T21:19:25.445Z,20.17
2024-04-30T21:22:32.521Z,20.26
2024-04-30T21:25:37.638Z,20.17
2024-04-30T21:28:42.536Z,19.98
2024-04-30T21:31:47.338Z,19.73
2024-04-30T21:34:52.213Z,19.69
2024-04-30T21:37:57.137Z,19.45
2024-04-30T21:41:01.986Z,19.48
2024-04-30T21:44:07.090Z,19.52
2024-04-30T21:47:11.972Z,19.44
2024-04-30T21:50:19.439Z,19.34
2024-04-30T21:53:21.699Z,19.24
2024-04-30T21:56:29.690Z,19.20
2024-04-30T21:59:34.835Z,19.26
2024-04-30T22:02:37.226Z,19.13
2024-04-30T22:05:44.732Z,19.02
2024-04-30T22:08:48.648Z,19.09
2024-04-30T22:11:57.167Z,19.11
2024-04-30T22:14:59.740Z,19.04
2024-04-30T22:18:04.725Z,19.24
2024-04-30T22:21:15.324Z,19.14
2024-04-30T22:24:22.083Z,19.19
2024-04-30T22:27:24.769Z,19.19
2024-04-30T22:30:29.685Z,19.21
2024-04-30T22:33:32.107Z,19.24
2024-04-30T22:36:40.179Z,19.18
2024-04-30T22:39:42.498Z,19.12
2024-04-30T22:42:47.397Z,19.20
2024-04-30T22:45:53.077Z,19.17
2024-04-30T22:48:55.914Z,19.04
2024-04-30T22:52:03.423Z,19.03
2024-04-30T22:55:06.670Z,18.96
2024-04-30T22:58:11.567Z,18.98
2024-04-30T23:01:17.100Z,19.01
2024-04-30T23:04:22.152Z,18.97
2024-04-30T23:07:27.031Z,18.94
2024-04-30T23:10:31.800Z,18.91
2024-04-30T23:13:34.130Z,18.78
2024-04-30T23:16:39.099Z,18.71
2024-04-30T23:19:41.407Z,18.61
2024-04-30T23:22:48.766Z,18.58
2024-04-30T23:25:55.779Z,18.58
2024-04-30T23:29:00.966Z,18.59
2024-04-30T23:32:06.350Z,18.46
2024-04-30T23:35:11.219Z,18.41
2024-04-30T23:38:15.982Z,18.50
2024-04-30T23:41:20.870Z,18.48
2024-04-30T23:44:25.720Z,18.38
2024-04-30T23:47:30.605Z,18.16
2024-04-30T23:50:35.469Z,18.18
2024-04-30T23:53:40.657Z,18.17
2024-04-30T23:56:45.576Z,18.09
2024-04-30T23:59:47.813Z,18.13
